createdAt,value
2023-06-11T00:00:48.064Z,15.00
2023-06-11T00:03:14.887Z,14.90
2023-06-11T00:05:41.795Z,14.80
2023-06-11T00:08:11.137Z,14.80
2023-06-11T00:10:37.892Z,14.70
2023-06-11T00:13:04.573Z,14.70
2023-06-11T00:15:31.683Z,14.60
2023-06-11T00:17:58.433Z,14.60
2023-06-11T00:20:25.242Z,14.50
2023-06-11T00:22:52.026Z,14.50
2023-06-11T00:25:18.853Z,14.40
2023-06-11T00:27:45.568Z,14.40
2023-06-11T00:30:13.273Z,14.40
2023-06-11T00:32:40.093Z,14.30
2023-06-11T00:35:09.000Z,14.30
2023-06-11T00:37:37.039Z,14.30
2023-06-11T00:40:04.693Z,14.20
2023-06-11T00:42:34.618Z,14.20
2023-06-11T00:45:06.888Z,14.10
2023-06-11T00:47:34.378Z,14.10
2023-06-11T00:50:03.255Z,14.10
2023-06-11T00:52:30.020Z,14.00
2023-06-11T00:54:59.477Z,13.90
2023-06-11T00:57:27.025Z,13.90
2023-06-11T00:59:55.224Z,13.90
2023-06-11T01:02:33.925Z,13.80
2023-06-11T01:05:04.414Z,13.80
2023-06-11T01:07:36.544Z,13.70
2023-06-11T01:10:04.276Z,13.70
2023-06-11T01:12:31.390Z,13.60
2023-06-11T01:14:58.070Z,13.60
2023-06-11T01:17:37.002Z,13.60
2023-06-11T01:20:13.765Z,13.50
2023-06-11T01:22:50.300Z,13.40
2023-06-11T01:25:31.761Z,13.40
2023-06-11T01:28:09.595Z,13.30
2023-06-11T01:30:44.484Z,13.30
2023-06-11T01:33:12.022Z,13.20
2023-06-11T01:35:40.194Z,13.20
2023-06-11T01:38:09.393Z,13.10
2023-06-11T01:40:36.413Z,13.10
2023-06-11T01:43:05.839Z,13.10
2023-06-11T01:45:33.860Z,13.00
2023-06-11T01:48:03.962Z,13.00
2023-06-11T01:50:31.243Z,12.90
2023-06-11T01:52:58.067Z,12.90
2023-06-11T01:55:24.825Z,12.90
2023-06-11T01:57:51.658Z,12.80
2023-06-11T02:00:19.569Z,12.80
2023-06-11T02:02:48.502Z,12.70
2023-06-11T02:05:15.811Z,12.70
2023-06-11T02:07:42.522Z,12.60
2023-06-11T02:10:09.758Z,12.60
2023-06-11T02:12:36.450Z,12.60
2023-06-11T02:15:03.683Z,12.60
2023-06-11T02:17:30.431Z,12.50
2023-06-11T02:19:57.143Z,12.50
2023-06-11T02:22:24.009Z,12.50
2023-06-11T02:24:50.874Z,12.50
2023-06-11T02:27:17.640Z,12.50
2023-06-11T02:29:44.400Z,12.40
2023-06-11T02:32:11.824Z,12.40
2023-06-11T02:34:38.516Z,12.40
2023-06-11T02:37:05.406Z,12.40
2023-06-11T02:39:32.152Z,12.30
2023-06-11T02:41:58.900Z,12.30
2023-06-11T02:44:25.966Z,12.30
2023-06-11T02:46:52.766Z,12.30
2023-06-11T02:49:19.522Z,12.30
2023-06-11T02:51:46.229Z,12.30
2023-06-11T02:54:12.994Z,12.20
2023-06-11T02:56:39.689Z,12.20
2023-06-11T02:59:06.574Z,12.20
2023-06-11T03:01:33.487Z,12.10
2023-06-11T03:04:00.357Z,12.10
2023-06-11T03:06:27.114Z,12.10
2023-06-11T03:08:54.537Z,12.10
2023-06-11T03:11:21.223Z,12.10
2023-06-11T03:13:47.907Z,12.10
2023-06-11T03:16:14.748Z,12.10
2023-06-11T03:18:44.765Z,12.10
2023-06-11T03:21:12.184Z,12.10
2023-06-11T03:23:38.991Z,12.10
2023-06-11T03:26:05.978Z,12.20
2023-06-11T03:28:32.713Z,12.20
2023-06-11T03:30:59.639Z,12.20
2023-06-11T03:33:26.516Z,12.30
2023-06-11T03:35:53.211Z,12.20
2023-06-11T03:38:20.266Z,12.20
2023-06-11T03:40:47.090Z,12.30
2023-06-11T03:43:14.248Z,12.30
2023-06-11T03:45:41.070Z,12.30
2023-06-11T03:48:09.199Z,12.40
2023-06-11T03:50:36.025Z,12.40
2023-06-11T03:53:02.824Z,12.40
2023-06-11T03:55:30.920Z,12.40
2023-06-11T03:57:57.977Z,12.50
2023-06-11T04:00:24.778Z,12.50
2023-06-11T04:02:51.778Z,12.60
2023-06-11T04:05:19.029Z,12.60
2023-06-11T04:07:45.776Z,12.60
2023-06-11T04:10:13.169Z,12.70
2023-06-11T04:12:39.876Z,12.70
2023-06-11T04:15:07.288Z,12.70
2023-06-11T04:17:34.518Z,12.80
2023-06-11T04:20:01.790Z,12.80
2023-06-11T04:22:28.574Z,12.80
2023-06-11T04:24:55.650Z,12.90
2023-06-11T04:27:22.325Z,12.90
2023-06-11T04:29:49.537Z,13.00
2023-06-11T04:32:18.004Z,13.10
2023-06-11T04:34:45.131Z,13.10
2023-06-11T04:37:11.935Z,13.20
2023-06-11T04:39:38.774Z,13.20
2023-06-11T04:42:06.670Z,13.20
2023-06-11T04:44:34.330Z,13.30
2023-06-11T04:47:02.337Z,13.40
2023-06-11T04:49:29.186Z,13.40
2023-06-11T04:51:59.185Z,13.50
2023-06-11T04:54:25.872Z,13.50
2023-06-11T04:56:52.547Z,13.50
2023-06-11T04:59:19.267Z,13.60
2023-06-11T05:01:51.536Z,13.60
2023-06-11T05:04:18.513Z,13.70
2023-06-11T05:06:48.003Z,13.80
2023-06-11T05:09:14.990Z,13.80
2023-06-11T05:11:44.285Z,13.90
2023-06-11T05:14:11.873Z,13.90
2023-06-11T05:16:40.290Z,14.00
2023-06-11T05:19:07.534Z,14.10
2023-06-11T05:21:34.671Z,14.10
2023-06-11T05:24:08.926Z,14.20
2023-06-11T05:26:36.429Z,14.30
2023-06-11T05:29:04.484Z,14.40
2023-06-11T05:31:32.197Z,14.50
2023-06-11T05:33:59.421Z,14.50
2023-06-11T05:36:27.322Z,14.60
2023-06-11T05:38:54.713Z,14.70
2023-06-11T05:41:21.699Z,14.80
2023-06-11T05:43:48.534Z,14.90
2023-06-11T05:46:16.031Z,15.00
2023-06-11T05:48:44.460Z,15.20
2023-06-11T05:51:11.491Z,15.30
2023-06-11T05:53:38.322Z,15.40
2023-06-11T05:56:06.482Z,15.50
2023-06-11T05:58:34.049Z,15.70
2023-06-11T06:01:05.239Z,15.80
2023-06-11T06:03:33.533Z,15.90
2023-06-11T06:06:04.347Z,16.00
2023-06-11T06:08:32.422Z,16.10
2023-06-11T06:10:59.306Z,16.20
2023-06-11T06:13:26.554Z,16.30
2023-06-11T06:15:54.224Z,16.40
2023-06-11T06:18:21.767Z,16.50
2023-06-11T06:20:48.667Z,16.60
2023-06-11T06:23:15.720Z,16.70
2023-06-11T06:25:42.862Z,16.70
2023-06-11T06:28:09.617Z,16.90
2023-06-11T06:30:36.468Z,17.10
2023-06-11T06:33:03.718Z,17.10
2023-06-11T06:35:32.698Z,17.10
2023-06-11T06:38:00.992Z,17.20
2023-06-11T06:40:28.173Z,17.30
2023-06-11T06:42:55.011Z,17.40
2023-06-11T06:45:21.678Z,17.50
2023-06-11T06:47:48.483Z,17.60
2023-06-11T06:50:15.347Z,17.70
2023-06-11T06:52:42.055Z,17.90
2023-06-11T06:55:09.924Z,18.00
2023-06-11T06:57:36.870Z,18.10
2023-06-11T07:00:05.703Z,18.10
2023-06-11T07:02:32.860Z,18.20
2023-06-11T07:04:59.859Z,18.30
2023-06-11T07:07:26.912Z,18.40
2023-06-11T07:09:53.665Z,18.50
2023-06-11T07:12:21.634Z,18.60
2023-06-11T07:14:48.412Z,18.70
2023-06-11T07:17:15.198Z,18.80
2023-06-11T07:19:42.030Z,18.90
2023-06-11T07:22:08.836Z,19.10
2023-06-11T07:24:36.468Z,19.20
2023-06-11T07:27:03.401Z,19.30
2023-06-11T07:29:30.215Z,19.40
2023-06-11T07:31:56.953Z,19.40
2023-06-11T07:34:23.865Z,19.50
2023-06-11T07:36:51.190Z,19.60
2023-06-11T07:39:18.548Z,19.70
2023-06-11T07:41:45.272Z,19.80
2023-06-11T07:44:13.289Z,19.80
2023-06-11T07:46:40.099Z,19.90
2023-06-11T07:49:06.952Z,20.00
2023-06-11T07:51:33.752Z,20.10
2023-06-11T07:54:01.474Z,20.10
2023-06-11T07:56:28.218Z,20.20
2023-06-11T07:58:56.064Z,20.30
2023-06-11T08:01:22.902Z,20.50
2023-06-11T08:03:49.961Z,20.50
2023-06-11T08:06:17.295Z,20.60
2023-06-11T08:08:44.452Z,20.70
2023-06-11T08:11:11.166Z,20.80
2023-06-11T08:13:39.377Z,20.80
2023-06-11T08:16:06.300Z,20.90
2023-06-11T08:18:33.007Z,21.00
2023-06-11T08:21:00.086Z,21.10
2023-06-11T08:23:26.809Z,21.20
2023-06-11T08:25:53.651Z,21.20
2023-06-11T08:28:21.094Z,21.40
2023-06-11T08:30:47.793Z,21.40
2023-06-11T08:33:14.860Z,21.60
2023-06-11T08:35:41.699Z,21.60
2023-06-11T08:38:08.446Z,21.60
2023-06-11T08:40:41.019Z,21.70
2023-06-11T08:43:08.867Z,21.70
2023-06-11T08:45:35.945Z,21.90
2023-06-11T08:48:04.652Z,21.80
2023-06-11T08:50:34.465Z,21.90
2023-06-11T08:53:04.111Z,22.10
2023-06-11T08:55:55.296Z,22.00
2023-06-11T08:58:23.842Z,22.10
2023-06-11T09:00:50.625Z,22.30
2023-06-11T09:03:17.425Z,22.40
2023-06-11T09:05:46.371Z,22.50
2023-06-11T09:08:13.226Z,22.60
2023-06-11T09:10:50.248Z,22.40
2023-06-11T09:13:18.349Z,22.60
2023-06-11T09:15:50.017Z,22.70
2023-06-11T09:18:21.099Z,22.70
2023-06-11T09:20:56.204Z,22.70
2023-06-11T09:23:33.431Z,22.80
2023-06-11T09:26:16.856Z,22.80
2023-06-11T09:28:43.538Z,22.90
2023-06-11T09:31:10.679Z,22.90
2023-06-11T09:33:37.800Z,22.90
2023-06-11T09:36:04.876Z,22.90
2023-06-11T09:38:38.074Z,23.00
2023-06-11T09:41:07.166Z,22.90
2023-06-11T09:43:35.291Z,23.00
2023-06-11T09:46:03.373Z,23.00
2023-06-11T09:48:31.025Z,23.10
2023-06-11T09:50:58.934Z,23.10
2023-06-11T09:53:25.668Z,23.20
2023-06-11T09:58:25.416Z,23.40
2023-06-11T10:01:03.662Z,23.40
2023-06-11T10:03:32.159Z,23.50
2023-06-11T10:05:59.927Z,23.50
2023-06-11T10:08:31.982Z,23.50
2023-06-11T10:11:03.094Z,23.60
2023-06-11T10:13:31.909Z,23.70
2023-06-11T10:16:10.976Z,23.70
2023-06-11T10:18:37.932Z,23.80
2023-06-11T10:21:05.864Z,23.80
2023-06-11T10:23:41.474Z,23.90
2023-06-11T10:26:10.845Z,23.90
2023-06-11T10:28:50.097Z,23.90
2023-06-11T10:31:27.161Z,23.90
2023-06-11T10:34:05.168Z,24.00
2023-06-11T10:36:37.035Z,23.90
2023-06-11T10:39:31.836Z,23.90
2023-06-11T10:42:02.877Z,24.00
2023-06-11T10:44:33.382Z,24.10
2023-06-11T10:47:03.584Z,24.20
2023-06-11T10:49:30.524Z,24.30
2023-06-11T10:51:57.460Z,24.40
2023-06-11T10:54:28.783Z,24.50
2023-06-11T10:56:55.886Z,24.60
2023-06-11T10:59:23.399Z,24.70
2023-06-11T11:01:59.669Z,24.80
2023-06-11T11:04:26.578Z,24.80
2023-06-11T11:07:09.333Z,24.80
2023-06-11T11:09:36.512Z,24.90
2023-06-11T11:12:04.387Z,24.90
2023-06-11T11:14:31.774Z,25.00
2023-06-11T11:17:02.298Z,25.10
2023-06-11T11:19:31.331Z,25.20
2023-06-11T11:21:58.381Z,25.20
2023-06-11T11:24:25.337Z,25.30
2023-06-11T11:26:52.204Z,25.30
2023-06-11T11:29:18.933Z,25.40
2023-06-11T11:31:46.671Z,25.40
2023-06-11T11:34:13.795Z,25.50
2023-06-11T11:36:40.718Z,25.60
2023-06-11T11:39:17.473Z,25.80
2023-06-11T11:41:54.246Z,25.80
2023-06-11T11:44:21.869Z,25.90
2023-06-11T11:46:48.814Z,26.00
2023-06-11T11:49:15.804Z,26.20
2023-06-11T11:51:47.159Z,26.30
2023-06-11T11:54:14.773Z,26.20
2023-06-11T11:56:41.851Z,26.30
2023-06-11T11:59:25.422Z,26.40
2023-06-11T12:01:58.087Z,26.40
2023-06-11T12:04:39.207Z,26.40
2023-06-11T12:07:07.873Z,26.30
2023-06-11T12:09:41.388Z,26.30
2023-06-11T12:12:09.307Z,26.10
2023-06-11T12:14:36.477Z,26.10
2023-06-11T12:17:04.024Z,26.10
2023-06-11T12:19:32.769Z,26.10
2023-06-11T12:21:59.525Z,26.10
2023-06-11T12:24:26.592Z,26.40
2023-06-11T12:26:53.384Z,26.60
2023-06-11T12:29:20.494Z,26.60
2023-06-11T12:31:48.533Z,26.70
2023-06-11T12:34:18.136Z,26.70
2023-06-11T12:36:46.128Z,26.80
2023-06-11T12:39:12.980Z,26.90
2023-06-11T12:41:40.515Z,27.00
2023-06-11T12:44:07.210Z,27.00
2023-06-11T12:46:35.883Z,27.10
2023-06-11T12:49:02.952Z,27.10
2023-06-11T12:51:29.628Z,27.10
2023-06-11T12:53:56.480Z,27.10
2023-06-11T12:56:24.342Z,27.20
2023-06-11T12:58:51.697Z,27.00
2023-06-11T13:01:18.752Z,27.20
2023-06-11T13:03:45.560Z,27.20
2023-06-11T13:06:12.325Z,27.30
2023-06-11T13:08:39.198Z,27.40
2023-06-11T13:11:06.038Z,27.50
2023-06-11T13:13:32.933Z,27.40
2023-06-11T13:15:59.758Z,27.40
2023-06-11T13:18:26.485Z,27.60
2023-06-11T13:20:54.087Z,27.70
2023-06-11T13:23:21.617Z,27.70
2023-06-11T13:25:49.226Z,27.70
2023-06-11T13:28:16.102Z,27.90
2023-06-11T13:30:42.895Z,27.80
2023-06-11T13:33:09.695Z,27.70
2023-06-11T13:35:36.986Z,27.60
2023-06-11T13:38:03.803Z,27.70
2023-06-11T13:40:30.570Z,27.70
2023-06-11T13:42:57.325Z,27.50
2023-06-11T13:45:24.169Z,27.50
2023-06-11T13:47:51.050Z,27.60
2023-06-11T13:50:17.944Z,27.80
2023-06-11T13:52:45.881Z,27.80
2023-06-11T13:55:13.004Z,27.80
2023-06-11T13:57:42.305Z,27.70
2023-06-11T14:00:09.716Z,27.80
2023-06-11T14:02:36.762Z,27.80
2023-06-11T14:05:03.636Z,27.70
2023-06-11T14:07:30.541Z,27.50
2023-06-11T14:09:57.226Z,27.40
2023-06-11T14:12:23.929Z,27.20
2023-06-11T14:14:51.022Z,27.00
2023-06-11T14:17:18.552Z,27.00
2023-06-11T14:19:45.332Z,27.00
2023-06-11T14:22:12.871Z,27.10
2023-06-11T14:24:39.595Z,26.90
2023-06-11T14:27:07.855Z,26.70
2023-06-11T14:29:34.836Z,26.40
2023-06-11T14:32:05.092Z,26.50
2023-06-11T14:34:32.009Z,26.40
2023-06-11T14:36:58.755Z,26.20
2023-06-11T14:39:25.647Z,26.10
2023-06-11T14:41:52.437Z,25.90
2023-06-11T14:44:19.266Z,25.80
2023-06-11T14:46:46.126Z,25.80
2023-06-11T14:49:12.870Z,25.90
2023-06-11T14:51:39.770Z,25.80
2023-06-11T14:54:06.479Z,25.80
2023-06-11T14:56:33.193Z,25.90
2023-06-11T14:59:00.057Z,26.00
2023-06-11T15:01:26.779Z,25.90
2023-06-11T15:03:53.527Z,25.80
2023-06-11T15:06:20.417Z,25.80
2023-06-11T15:08:47.181Z,25.80
2023-06-11T15:11:13.964Z,25.80
2023-06-11T15:13:41.944Z,25.80
2023-06-11T15:16:08.784Z,25.70
2023-06-11T15:18:35.486Z,25.80
2023-06-11T15:21:02.424Z,25.80
2023-06-11T15:23:29.144Z,25.90
2023-06-11T15:25:56.236Z,25.90
2023-06-11T15:28:23.024Z,25.90
2023-06-11T15:30:49.765Z,25.90
2023-06-11T15:33:16.669Z,26.10
2023-06-11T15:35:43.666Z,25.70
2023-06-11T15:38:10.607Z,25.80
2023-06-11T15:40:37.264Z,25.80
2023-06-11T15:43:04.129Z,25.80
2023-06-11T15:45:30.885Z,25.70
2023-06-11T15:47:57.643Z,25.80
2023-06-11T15:50:24.664Z,25.60
2023-06-11T15:52:51.423Z,25.60
2023-06-11T15:55:18.552Z,25.60
2023-06-11T15:57:45.519Z,25.70
2023-06-11T16:00:13.023Z,25.70
2023-06-11T16:02:40.144Z,25.70
2023-06-11T16:05:07.154Z,25.60
2023-06-11T16:07:34.287Z,25.60
2023-06-11T16:10:01.706Z,25.60
2023-06-11T16:12:28.398Z,25.40
2023-06-11T16:14:55.086Z,25.40
2023-06-11T16:17:23.141Z,25.40
2023-06-11T16:19:50.878Z,25.40
2023-06-11T16:22:17.662Z,25.60
2023-06-11T16:24:44.524Z,25.70
2023-06-11T16:27:11.213Z,25.70
2023-06-11T16:29:37.975Z,25.70
2023-06-11T16:32:05.192Z,25.60
2023-06-11T16:34:31.936Z,25.40
2023-06-11T16:36:58.934Z,25.40
2023-06-11T16:39:28.577Z,25.30
2023-06-11T16:41:56.241Z,25.40
2023-06-11T16:44:23.049Z,25.30
2023-06-11T16:46:50.015Z,25.70
2023-06-11T16:49:17.674Z,25.50
2023-06-11T16:51:44.539Z,25.60
2023-06-11T16:54:11.243Z,26.80
2023-06-11T16:56:38.007Z,25.60
2023-06-11T16:59:04.749Z,25.80
2023-06-11T17:01:31.502Z,25.60
2023-06-11T17:03:58.392Z,25.50
2023-06-11T17:06:27.928Z,25.50
2023-06-11T17:08:56.023Z,25.60
2023-06-11T17:11:22.755Z,25.80
2023-06-11T17:13:50.525Z,25.90
2023-06-11T17:16:17.301Z,26.10
2023-06-11T17:18:44.229Z,26.50
2023-06-11T17:21:11.736Z,26.80
2023-06-11T17:23:38.545Z,27.40
2023-06-11T17:26:05.408Z,28.20
2023-06-11T17:28:32.223Z,28.80
2023-06-11T17:30:58.964Z,29.40
2023-06-11T17:33:26.053Z,30.20
2023-06-11T17:35:53.509Z,30.70
2023-06-11T17:38:20.943Z,31.30
2023-06-11T17:40:47.688Z,31.80
2023-06-11T17:43:14.452Z,32.30
2023-06-11T17:45:41.302Z,32.50
2023-06-11T17:48:08.156Z,32.50
2023-06-11T17:50:34.941Z,32.40
2023-06-11T17:53:01.995Z,32.60
2023-06-11T17:55:28.787Z,33.00
2023-06-11T17:57:55.837Z,33.40
2023-06-11T18:00:22.642Z,33.60
2023-06-11T18:02:49.334Z,33.80
2023-06-11T18:05:16.319Z,33.70
2023-06-11T18:07:46.557Z,33.70
2023-06-11T18:10:17.164Z,34.00
2023-06-11T18:12:45.053Z,34.30
2023-06-11T18:15:30.576Z,34.40
2023-06-11T18:17:58.735Z,34.50
2023-06-11T18:20:25.624Z,34.80
2023-06-11T18:22:52.571Z,35.10
2023-06-11T18:25:19.536Z,35.20
2023-06-11T18:27:46.268Z,35.30
2023-06-11T18:30:13.436Z,35.50
2023-06-11T18:32:40.524Z,35.40
2023-06-11T18:35:07.842Z,35.10
2023-06-11T18:37:34.592Z,34.90
2023-06-11T18:40:01.855Z,34.20
2023-06-11T18:42:28.725Z,32.90
2023-06-11T18:44:55.426Z,31.40
2023-06-11T18:47:22.203Z,30.50
2023-06-11T18:49:48.891Z,30.30
2023-06-11T18:52:15.656Z,29.80
2023-06-11T18:54:42.388Z,29.10
2023-06-11T18:57:09.674Z,28.30
2023-06-11T18:59:37.261Z,27.50
2023-06-11T19:02:04.921Z,26.80
2023-06-11T19:04:32.076Z,26.40
2023-06-11T19:06:58.936Z,26.20
2023-06-11T19:09:25.705Z,25.80
2023-06-11T19:11:52.537Z,25.40
2023-06-11T19:14:19.228Z,25.00
2023-06-11T19:16:49.259Z,24.60
2023-06-11T19:19:18.183Z,24.30
2023-06-11T19:21:46.826Z,24.00
2023-06-11T19:24:15.400Z,23.70
2023-06-11T19:26:43.601Z,23.50
2023-06-11T19:29:10.572Z,23.20
2023-06-11T19:31:37.433Z,23.00
2023-06-11T19:34:05.258Z,22.80
2023-06-11T19:36:32.138Z,23.00
2023-06-11T19:38:58.888Z,22.50
2023-06-11T19:44:00.201Z,22.10
2023-06-11T19:46:30.003Z,22.10
2023-06-11T19:48:58.393Z,21.80
2023-06-11T19:51:25.311Z,21.60
2023-06-11T19:53:52.761Z,21.50
2023-06-11T19:56:20.483Z,21.30
2023-06-11T19:58:47.691Z,21.20
2023-06-11T20:01:17.933Z,21.00
2023-06-11T20:03:45.711Z,20.90
2023-06-11T20:06:13.304Z,20.70
2023-06-11T20:08:40.856Z,20.60
2023-06-11T20:11:11.827Z,20.50
2023-06-11T20:13:43.388Z,20.40
2023-06-11T20:16:10.343Z,20.30
2023-06-11T20:18:37.133Z,20.20
2023-06-11T20:21:04.482Z,20.00
2023-06-11T20:23:32.985Z,19.90
2023-06-11T20:26:00.458Z,19.80
2023-06-11T20:28:27.473Z,19.70
2023-06-11T20:30:54.169Z,19.50
2023-06-11T20:33:21.085Z,19.40
2023-06-11T20:35:47.884Z,19.30
2023-06-11T20:38:14.717Z,19.20
2023-06-11T20:40:41.650Z,19.10
2023-06-11T20:43:08.365Z,18.90
2023-06-11T20:45:37.292Z,18.80
2023-06-11T20:48:05.288Z,18.70
2023-06-11T20:50:32.270Z,18.60
2023-06-11T20:52:59.078Z,18.50
2023-06-11T20:55:25.863Z,18.30
2023-06-11T20:57:52.565Z,18.10
2023-06-11T21:00:19.566Z,18.60
2023-06-11T21:02:46.539Z,17.90
2023-06-11T21:05:13.308Z,17.90
2023-06-11T21:07:40.048Z,17.70
2023-06-11T21:10:07.558Z,17.60
2023-06-11T21:12:37.978Z,17.40
2023-06-11T21:15:05.675Z,17.40
2023-06-11T21:17:32.468Z,17.30
2023-06-11T21:19:59.154Z,17.20
2023-06-11T21:22:26.058Z,17.10
2023-06-11T21:24:52.724Z,17.00
2023-06-11T21:27:19.456Z,16.90
2023-06-11T21:29:46.307Z,16.80
2023-06-11T21:32:13.073Z,16.60
2023-06-11T21:34:39.888Z,16.60
2023-06-11T21:37:06.832Z,16.40
2023-06-11T21:39:33.537Z,16.30
2023-06-11T21:42:00.791Z,16.20
2023-06-11T21:44:27.576Z,16.10
2023-06-11T21:46:54.283Z,16.10
2023-06-11T21:49:21.238Z,15.90
2023-06-11T21:51:48.013Z,15.80
2023-06-11T21:54:14.721Z,15.70
2023-06-11T21:56:41.506Z,15.70
2023-06-11T21:59:08.272Z,15.60
2023-06-11T22:01:35.120Z,15.50
2023-06-11T22:04:02.124Z,15.40
2023-06-11T22:06:28.911Z,15.40
2023-06-11T22:08:55.601Z,15.30
2023-06-11T22:11:22.869Z,15.30
2023-06-11T22:13:49.809Z,15.20
2023-06-11T22:16:17.466Z,15.10
2023-06-11T22:18:45.137Z,15.10
2023-06-11T22:21:15.084Z,15.00
2023-06-11T22:23:50.282Z,14.90
2023-06-11T22:26:18.283Z,14.80
2023-06-11T22:28:45.079Z,14.70
2023-06-11T22:31:11.789Z,14.70
2023-06-11T22:33:38.526Z,14.60
2023-06-11T22:36:05.586Z,14.50
2023-06-11T22:38:32.324Z,14.50
2023-06-11T22:40:59.098Z,14.40
2023-06-11T22:43:25.825Z,14.40
2023-06-11T22:45:53.042Z,14.30
2023-06-11T22:48:19.758Z,14.30
2023-06-11T22:50:48.463Z,14.20
2023-06-11T22:53:15.666Z,14.20
2023-06-11T22:55:42.844Z,14.10
2023-06-11T22:58:10.062Z,14.10
2023-06-11T23:00:37.096Z,14.00
2023-06-11T23:03:04.109Z,14.00
2023-06-11T23:05:30.993Z,13.90
2023-06-11T23:07:57.873Z,13.90
2023-06-11T23:10:25.103Z,13.80
2023-06-11T23:12:53.674Z,13.80
2023-06-11T23:15:20.930Z,13.70
2023-06-11T23:17:50.980Z,13.70
2023-06-11T23:20:18.044Z,13.60
2023-06-11T23:22:48.580Z,13.50
2023-06-11T23:25:17.532Z,13.50
2023-06-11T23:27:45.047Z,13.50
2023-06-11T23:30:13.069Z,13.50
2023-06-11T23:32:40.152Z,13.40
2023-06-11T23:35:09.162Z,13.30
2023-06-11T23:37:41.670Z,13.30
2023-06-11T23:40:12.299Z,13.30
2023-06-11T23:42:39.155Z,13.20
2023-06-11T23:45:06.530Z,13.20
2023-06-11T23:47:33.510Z,13.10
2023-06-11T23:50:00.245Z,13.10
2023-06-11T23:52:27.419Z,13.00
2023-06-11T23:54:54.535Z,13.00
2023-06-11T23:57:21.300Z,12.90
2023-06-11T23:59:48.991Z,12.70
